createdAt,value
2022-10-18T00:00:00.510Z,6.63
2022-10-18T00:02:27.314Z,6.95
2022-10-18T00:04:53.930Z,6.72
2022-10-18T00:07:20.611Z,6.18
2022-10-18T00:09:47.201Z,7.25
2022-10-18T00:12:13.819Z,6.97
2022-10-18T00:14:40.516Z,7.22
2022-10-18T00:17:07.298Z,7.30
2022-10-18T00:19:33.997Z,6.13
2022-10-18T00:22:00.559Z,6.72
2022-10-18T00:24:27.179Z,7.50
2022-10-18T00:26:53.768Z,7.20
2022-10-18T00:29:20.460Z,7.82
2022-10-18T00:31:47.099Z,8.15
2022-10-18T00:34:16.063Z,6.90
2022-10-18T00:36:43.789Z,8.65
2022-10-18T00:39:17.461Z,8.60
2022-10-18T00:41:45.066Z,8.45
2022-10-18T00:44:11.622Z,8.80
2022-10-18T00:46:46.572Z,8.65
2022-10-18T00:49:21.425Z,12.23
2022-10-18T00:51:57.532Z,12.70
2022-10-18T00:54:26.049Z,13.50
2022-10-18T00:56:52.852Z,10.75
2022-10-18T00:59:20.249Z,15.27
2022-10-18T01:01:46.911Z,13.35
2022-10-18T01:04:18.903Z,16.50
2022-10-18T01:07:23.479Z,19.55
2022-10-18T01:10:08.240Z,18.20
2022-10-18T01:13:01.183Z,19.52
2022-10-18T01:15:41.579Z,18.92
2022-10-18T01:18:30.858Z,18.20
2022-10-18T01:21:09.654Z,17.88
2022-10-18T01:23:50.931Z,18.00
2022-10-18T01:26:17.581Z,18.83
2022-10-18T01:28:56.428Z,19.10
2022-10-18T01:31:34.807Z,18.25
2022-10-18T01:34:05.757Z,18.05
2022-10-18T01:36:35.766Z,19.10
2022-10-18T01:39:06.925Z,19.00
2022-10-18T01:41:36.959Z,18.70
2022-10-18T01:44:06.537Z,21.13
2022-10-18T01:46:33.718Z,21.10
2022-10-18T01:49:00.668Z,23.75
2022-10-18T01:51:29.967Z,21.77
2022-10-18T01:53:57.505Z,22.17
2022-10-18T01:56:44.405Z,22.30
2022-10-18T01:59:29.625Z,21.55
2022-10-18T02:02:06.363Z,20.35
2022-10-18T02:04:44.584Z,21.30
2022-10-18T02:07:33.944Z,21.65
2022-10-18T02:10:18.739Z,19.70
2022-10-18T02:12:46.774Z,19.58
2022-10-18T02:15:17.276Z,20.70
2022-10-18T02:17:45.688Z,21.08
2022-10-18T02:20:16.648Z,20.52
2022-10-18T02:22:46.041Z,23.02
2022-10-18T02:25:19.529Z,21.92
2022-10-18T02:27:46.471Z,21.15
2022-10-18T02:30:15.348Z,19.75
2022-10-18T02:32:50.404Z,22.80
2022-10-18T02:35:30.841Z,24.33
2022-10-18T02:37:58.718Z,31.83
2022-10-18T02:40:26.324Z,27.17
2022-10-18T02:42:56.834Z,27.92
2022-10-18T02:45:23.755Z,26.88
2022-10-18T02:47:50.797Z,29.42
2022-10-18T02:50:17.759Z,31.70
2022-10-18T02:52:44.825Z,31.60
2022-10-18T02:55:11.533Z,29.98
2022-10-18T02:57:38.225Z,27.90
2022-10-18T03:00:06.353Z,32.05
2022-10-18T03:02:32.982Z,29.65
2022-10-18T03:04:59.639Z,29.83
2022-10-18T03:07:26.880Z,29.33
2022-10-18T03:09:53.541Z,29.38
2022-10-18T03:12:20.203Z,28.02
2022-10-18T03:14:46.936Z,25.17
2022-10-18T03:17:13.557Z,9.10
2022-10-18T03:19:40.198Z,8.32
2022-10-18T03:22:06.818Z,3.58
2022-10-18T03:24:34.273Z,5.55
2022-10-18T03:27:00.897Z,4.63
2022-10-18T03:29:27.552Z,2.53
2022-10-18T03:31:54.117Z,2.75
2022-10-18T03:34:20.789Z,2.95
2022-10-18T03:36:47.577Z,2.00
2022-10-18T03:39:14.262Z,1.52
2022-10-18T03:41:40.953Z,1.63
2022-10-18T03:44:07.651Z,1.83
2022-10-18T03:46:34.245Z,2.10
2022-10-18T03:49:00.857Z,2.20
2022-10-18T03:51:27.461Z,3.00
2022-10-18T03:53:54.023Z,3.45
2022-10-18T03:56:20.615Z,3.63
2022-10-18T03:58:47.206Z,3.92
2022-10-18T04:01:13.897Z,3.55
2022-10-18T04:03:40.533Z,3.80
2022-10-18T04:06:09.969Z,3.58
2022-10-18T04:08:36.636Z,4.30
2022-10-18T04:11:08.504Z,5.25
2022-10-18T04:13:35.637Z,4.72
2022-10-18T04:16:02.391Z,3.80
2022-10-18T04:18:29.060Z,2.58
2022-10-18T04:20:55.676Z,2.88
2022-10-18T04:23:22.336Z,2.80
2022-10-18T04:25:48.966Z,2.63
2022-10-18T04:28:15.571Z,3.13
2022-10-18T04:30:42.143Z,3.45
2022-10-18T04:33:08.720Z,3.05
2022-10-18T04:35:35.409Z,3.38
2022-10-18T04:38:02.021Z,3.10
2022-10-18T04:40:28.589Z,7.40
2022-10-18T04:42:55.930Z,4.28
2022-10-18T04:45:22.673Z,7.40
2022-10-18T04:47:49.262Z,6.53
2022-10-18T04:50:16.039Z,5.45
2022-10-18T04:52:42.677Z,6.38
2022-10-18T04:55:09.531Z,6.72
2022-10-18T04:57:36.089Z,7.60
2022-10-18T05:00:03.030Z,6.80
2022-10-18T05:02:29.887Z,5.70
2022-10-18T05:04:56.738Z,6.32
2022-10-18T05:07:23.424Z,7.03
2022-10-18T05:09:50.046Z,8.82
2022-10-18T05:12:16.712Z,7.40
2022-10-18T05:14:43.273Z,8.60
2022-10-18T05:17:09.931Z,9.85
2022-10-18T05:19:36.626Z,9.90
2022-10-18T05:22:03.258Z,6.57
2022-10-18T05:24:29.897Z,7.35
2022-10-18T05:26:57.053Z,7.88
2022-10-18T05:29:24.000Z,7.70
2022-10-18T05:31:50.952Z,8.68
2022-10-18T05:34:20.541Z,6.13
2022-10-18T05:36:49.278Z,7.53
2022-10-18T05:39:15.917Z,7.47
2022-10-18T05:41:42.484Z,7.40
2022-10-18T05:44:09.662Z,9.80
2022-10-18T05:46:36.403Z,7.50
2022-10-18T05:49:03.032Z,6.55
2022-10-18T05:51:29.756Z,8.32
2022-10-18T05:53:56.382Z,9.35
2022-10-18T05:56:23.045Z,6.70
2022-10-18T05:58:51.201Z,7.40
2022-10-18T06:01:18.483Z,6.82
2022-10-18T06:03:45.115Z,7.32
2022-10-18T06:06:13.134Z,7.32
2022-10-18T06:08:41.666Z,6.88
2022-10-18T06:11:10.766Z,8.80
2022-10-18T06:13:45.001Z,7.22
2022-10-18T06:16:13.112Z,7.28
2022-10-18T06:18:40.152Z,6.68
2022-10-18T06:21:07.951Z,7.13
2022-10-18T06:23:35.261Z,8.90
2022-10-18T06:26:04.020Z,9.88
2022-10-18T06:28:30.731Z,7.77
2022-10-18T06:30:58.084Z,9.55
2022-10-18T06:33:25.076Z,11.02
2022-10-18T06:36:03.041Z,9.20
2022-10-18T06:38:30.107Z,7.38
2022-10-18T06:40:57.938Z,8.05
2022-10-18T06:43:25.029Z,7.57
2022-10-18T06:45:52.383Z,8.65
2022-10-18T06:50:59.488Z,8.15
2022-10-18T06:53:28.165Z,7.80
2022-10-18T06:56:10.720Z,7.93
2022-10-18T06:58:37.838Z,6.68
2022-10-18T07:01:18.203Z,6.13
2022-10-18T07:03:46.154Z,4.97
2022-10-18T07:06:15.470Z,5.45
2022-10-18T07:08:42.133Z,5.25
2022-10-18T07:11:13.791Z,7.70
2022-10-18T07:13:40.366Z,6.63
2022-10-18T07:16:15.662Z,5.00
2022-10-18T07:18:47.660Z,6.22
2022-10-18T07:21:16.196Z,1.92
2022-10-18T07:23:46.099Z,2.33
2022-10-18T07:26:27.337Z,3.83
2022-10-18T07:28:57.934Z,2.63
2022-10-18T07:31:25.258Z,1.35
2022-10-18T07:33:52.044Z,1.15
2022-10-18T07:36:20.987Z,1.50
2022-10-18T07:38:47.987Z,1.20
2022-10-18T07:41:15.188Z,1.20
2022-10-18T07:43:45.777Z,1.23
2022-10-18T07:46:13.506Z,1.20
2022-10-18T07:48:40.317Z,0.98
2022-10-18T07:51:07.033Z,1.65
2022-10-18T07:53:34.523Z,2.47
2022-10-18T07:56:05.901Z,2.40
2022-10-18T07:58:35.398Z,1.10
2022-10-18T08:01:03.564Z,1.52
2022-10-18T08:03:30.161Z,1.20
2022-10-18T08:05:57.147Z,1.20
2022-10-18T08:08:24.780Z,1.70
2022-10-18T08:10:51.955Z,0.98
2022-10-18T08:13:18.782Z,1.00
2022-10-18T08:15:45.441Z,1.50
2022-10-18T08:18:12.288Z,0.70
2022-10-18T08:20:46.189Z,0.82
2022-10-18T08:23:15.767Z,0.77
2022-10-18T08:25:42.440Z,0.88
2022-10-18T08:28:09.200Z,0.60
2022-10-18T08:30:36.381Z,0.70
2022-10-18T08:33:03.821Z,0.50
2022-10-18T08:35:31.776Z,0.50
2022-10-18T08:37:59.311Z,1.10
2022-10-18T08:40:29.007Z,0.50
2022-10-18T08:45:41.874Z,0.65
2022-10-18T08:48:21.908Z,0.50
2022-10-18T08:50:49.822Z,0.70
2022-10-18T08:53:25.225Z,0.52
2022-10-18T08:56:00.594Z,0.50
2022-10-18T08:58:31.718Z,0.50
2022-10-18T09:01:13.662Z,0.52
2022-10-18T09:04:15.403Z,0.50
2022-10-18T09:06:52.442Z,0.70
2022-10-18T09:09:55.135Z,0.60
2022-10-18T09:12:27.819Z,0.50
2022-10-18T09:15:06.761Z,0.70
2022-10-18T09:17:58.158Z,0.80
2022-10-18T09:20:46.109Z,0.55
2022-10-18T09:23:19.638Z,0.80
2022-10-18T09:25:48.923Z,0.63
2022-10-18T09:28:34.234Z,0.73
2022-10-18T09:31:21.988Z,0.68
2022-10-18T09:33:58.266Z,0.60
2022-10-18T09:36:27.874Z,0.70
2022-10-18T09:41:40.861Z,0.43
2022-10-18T09:44:25.377Z,0.88
2022-10-18T09:47:01.731Z,0.60
2022-10-18T09:49:37.388Z,0.82
2022-10-18T09:52:08.128Z,0.70
2022-10-18T09:54:47.756Z,0.75
2022-10-18T09:59:50.981Z,0.52
2022-10-18T10:02:21.927Z,0.40
2022-10-18T10:04:54.162Z,0.35
2022-10-18T10:07:28.581Z,0.50
2022-10-18T10:10:13.441Z,0.60
2022-10-18T10:12:41.457Z,0.55
2022-10-18T10:15:29.555Z,0.52
2022-10-18T10:18:19.174Z,0.82
2022-10-18T10:20:55.028Z,1.05
2022-10-18T10:23:32.516Z,1.10
2022-10-18T10:26:02.567Z,0.98
2022-10-18T10:28:34.755Z,0.80
2022-10-18T10:31:26.932Z,1.25
2022-10-18T10:34:13.292Z,0.85
2022-10-18T10:36:54.101Z,0.98
2022-10-18T10:39:23.103Z,1.27
2022-10-18T10:41:53.150Z,1.10
2022-10-18T10:44:28.775Z,0.93
2022-10-18T10:46:55.769Z,1.00
2022-10-18T10:49:46.131Z,0.88
2022-10-18T10:52:27.285Z,1.00
2022-10-18T10:55:05.704Z,0.85
2022-10-18T10:57:46.474Z,0.85
2022-10-18T11:00:40.930Z,1.35
2022-10-18T11:03:29.195Z,1.55
2022-10-18T11:05:57.771Z,1.15
2022-10-18T11:08:27.729Z,1.10
2022-10-18T11:11:23.086Z,0.85
2022-10-18T11:14:25.770Z,1.33
2022-10-18T11:17:21.427Z,1.15
2022-10-18T11:20:02.520Z,1.10
2022-10-18T11:22:38.714Z,1.55
2022-10-18T11:25:06.018Z,1.10
2022-10-18T11:27:44.750Z,1.45
2022-10-18T11:30:37.089Z,1.40
2022-10-18T11:33:38.262Z,1.20
2022-10-18T11:36:17.764Z,1.30
2022-10-18T11:38:57.625Z,1.40
2022-10-18T11:41:31.742Z,1.83
2022-10-18T11:44:03.266Z,1.20
2022-10-18T11:46:57.895Z,1.23
2022-10-18T11:49:42.372Z,1.63
2022-10-18T11:52:15.832Z,1.67
2022-10-18T11:54:57.327Z,1.60
2022-10-18T11:57:35.908Z,2.17
2022-10-18T12:00:39.245Z,2.10
2022-10-18T12:03:34.973Z,1.80
2022-10-18T12:06:05.771Z,1.90
2022-10-18T12:08:59.590Z,1.95
2022-10-18T12:11:50.230Z,1.52
2022-10-18T12:14:42.428Z,1.60
2022-10-18T12:17:42.727Z,1.17
2022-10-18T12:20:31.034Z,1.40
2022-10-18T12:23:18.406Z,1.58
2022-10-18T12:26:00.815Z,1.80
2022-10-18T12:28:42.887Z,1.35
2022-10-18T12:31:21.943Z,1.20
2022-10-18T12:33:53.807Z,1.30
2022-10-18T12:36:33.638Z,1.23
2022-10-18T12:39:03.247Z,1.23
2022-10-18T12:44:21.451Z,1.42
2022-10-18T12:46:56.033Z,1.50
2022-10-18T12:49:41.307Z,1.45
2022-10-18T12:52:27.960Z,1.20
2022-10-18T12:55:07.885Z,0.80
2022-10-18T12:57:52.928Z,1.30
2022-10-18T13:00:31.307Z,0.90
2022-10-18T13:03:10.435Z,1.30
2022-10-18T13:05:54.438Z,0.90
2022-10-18T13:08:27.979Z,1.20
2022-10-18T13:11:10.180Z,1.50
2022-10-18T13:14:05.882Z,1.50
2022-10-18T13:16:38.649Z,1.60
2022-10-18T13:19:28.119Z,1.73
2022-10-18T13:22:29.584Z,1.13
2022-10-18T13:25:10.863Z,0.80
2022-10-18T13:28:18.959Z,1.33
2022-10-18T13:31:00.941Z,1.00
2022-10-18T13:33:39.343Z,1.10
2022-10-18T13:36:22.739Z,0.80
2022-10-18T13:38:57.493Z,1.42
2022-10-18T13:41:25.753Z,1.00
2022-10-18T13:43:52.641Z,1.45
2022-10-18T13:46:20.605Z,1.15
2022-10-18T13:48:58.525Z,1.30
2022-10-18T13:51:59.161Z,1.38
2022-10-18T13:55:02.466Z,0.90
2022-10-18T13:58:13.240Z,1.02
2022-10-18T14:01:04.849Z,1.50
2022-10-18T14:03:57.690Z,1.05
2022-10-18T14:06:28.243Z,1.15
2022-10-18T14:09:06.187Z,0.90
2022-10-18T14:11:48.143Z,1.20
2022-10-18T14:14:36.689Z,1.30
2022-10-18T14:17:25.441Z,1.17
2022-10-18T14:19:58.464Z,0.90
2022-10-18T14:22:35.593Z,2.53
2022-10-18T14:25:02.566Z,1.17
2022-10-18T14:27:33.519Z,1.25
2022-10-18T14:30:20.134Z,1.20
2022-10-18T14:32:49.451Z,0.95
2022-10-18T14:35:37.895Z,1.20
2022-10-18T14:38:13.735Z,1.48
2022-10-18T14:40:41.075Z,1.27
2022-10-18T14:43:13.148Z,1.02
2022-10-18T14:45:40.587Z,1.15
2022-10-18T14:48:22.606Z,1.10
2022-10-18T14:50:59.321Z,1.00
2022-10-18T14:53:32.455Z,1.15
2022-10-18T14:56:01.245Z,1.40
2022-10-18T14:58:28.702Z,1.38
2022-10-18T15:00:55.393Z,0.90
2022-10-18T15:03:22.616Z,1.00
2022-10-18T15:05:59.518Z,1.10
2022-10-18T15:08:35.521Z,0.80
2022-10-18T15:11:02.791Z,1.02
2022-10-18T15:13:32.191Z,1.00
2022-10-18T15:15:59.674Z,1.00
2022-10-18T15:18:27.940Z,1.10
2022-10-18T15:21:24.068Z,1.00
2022-10-18T15:23:51.616Z,1.10
2022-10-18T15:26:30.307Z,0.98
2022-10-18T15:29:01.520Z,1.30
2022-10-18T15:31:34.852Z,1.30
2022-10-18T15:34:27.211Z,1.60
2022-10-18T15:36:56.978Z,1.65
2022-10-18T15:39:29.309Z,1.85
2022-10-18T15:41:58.694Z,1.85
2022-10-18T15:44:47.118Z,1.65
2022-10-18T15:47:13.792Z,2.42
2022-10-18T15:49:46.570Z,2.53
2022-10-18T15:52:32.603Z,3.20
2022-10-18T15:55:22.679Z,3.22
2022-10-18T15:57:49.579Z,3.63
2022-10-18T16:00:20.663Z,3.10
2022-10-18T16:02:47.327Z,2.90
2022-10-18T16:05:16.967Z,3.40
2022-10-18T16:10:13.969Z,3.53
2022-10-18T16:12:40.643Z,3.38
2022-10-18T16:15:07.852Z,2.78
2022-10-18T16:17:34.829Z,3.33
2022-10-18T16:20:01.799Z,3.78
2022-10-18T16:22:29.524Z,3.55
2022-10-18T16:24:57.877Z,3.85
2022-10-18T16:27:25.737Z,3.75
2022-10-18T16:29:52.306Z,3.67
2022-10-18T16:32:18.862Z,2.90
2022-10-18T16:34:45.564Z,3.28
2022-10-18T16:37:12.199Z,3.35
2022-10-18T16:39:38.963Z,3.50
2022-10-18T16:42:05.699Z,3.00
2022-10-18T16:44:32.410Z,3.30
2022-10-18T16:46:59.052Z,4.07
2022-10-18T16:49:26.732Z,3.65
2022-10-18T16:51:54.300Z,3.17
2022-10-18T16:54:21.109Z,3.22
2022-10-18T16:56:49.993Z,3.53
2022-10-18T16:59:37.063Z,4.18
2022-10-18T17:02:08.978Z,2.88
2022-10-18T17:04:35.705Z,3.03
2022-10-18T17:07:04.738Z,3.28
2022-10-18T17:09:31.510Z,3.30
2022-10-18T17:11:58.629Z,4.57
2022-10-18T17:14:25.258Z,11.40
2022-10-18T17:16:54.899Z,19.63
2022-10-18T17:19:23.883Z,4.10
2022-10-18T17:21:50.487Z,4.13
2022-10-18T17:24:17.131Z,13.38
2022-10-18T17:26:43.893Z,7.68
2022-10-18T17:29:10.620Z,6.80
2022-10-18T17:31:37.331Z,4.38
2022-10-18T17:34:04.632Z,4.30
2022-10-18T17:36:32.287Z,5.10
2022-10-18T17:38:59.296Z,5.82
2022-10-18T17:41:25.908Z,4.85
2022-10-18T17:43:52.597Z,5.35
2022-10-18T17:46:19.762Z,5.28
2022-10-18T17:48:46.947Z,8.48
2022-10-18T17:51:15.786Z,7.15
2022-10-18T17:53:42.414Z,6.53
2022-10-18T17:56:10.339Z,13.05
2022-10-18T17:58:37.021Z,10.05
2022-10-18T18:01:12.945Z,6.60
2022-10-18T18:03:40.376Z,6.22
2022-10-18T18:06:21.734Z,5.55
2022-10-18T18:08:49.372Z,12.73
2022-10-18T18:11:17.095Z,10.73
2022-10-18T18:13:43.731Z,11.20
2022-10-18T18:16:22.006Z,5.97
2022-10-18T18:18:50.988Z,10.25
2022-10-18T18:21:17.955Z,7.57
2022-10-18T18:23:45.060Z,7.82
2022-10-18T18:26:12.452Z,6.50
2022-10-18T18:28:39.203Z,6.50
2022-10-18T18:31:14.753Z,7.70
2022-10-18T18:33:41.914Z,7.07
2022-10-18T18:36:09.444Z,7.85
2022-10-18T18:38:38.668Z,8.32
2022-10-18T18:41:15.745Z,7.45
2022-10-18T18:43:54.719Z,7.90
2022-10-18T18:46:23.141Z,7.53
2022-10-18T18:48:50.200Z,7.63
2022-10-18T18:51:19.789Z,11.02
2022-10-18T18:53:47.744Z,24.85
2022-10-18T18:58:48.634Z,11.55
2022-10-18T19:01:30.011Z,11.73
2022-10-18T19:03:58.009Z,14.90
2022-10-18T19:06:27.742Z,12.07
2022-10-18T19:11:28.485Z,11.13
2022-10-18T19:13:55.163Z,12.23
2022-10-18T19:16:29.396Z,11.77
2022-10-18T19:18:59.938Z,11.63
2022-10-18T19:21:30.825Z,11.65
2022-10-18T19:23:58.253Z,10.93
2022-10-18T19:26:26.584Z,10.02
2022-10-18T19:28:53.413Z,11.32
2022-10-18T19:31:20.142Z,12.45
2022-10-18T19:33:58.954Z,12.85
2022-10-18T19:36:26.869Z,31.42
2022-10-18T19:38:53.503Z,20.83
2022-10-18T19:41:20.149Z,16.27
2022-10-18T19:43:46.897Z,14.77
2022-10-18T19:46:13.621Z,16.20
2022-10-18T19:48:40.254Z,15.18
2022-10-18T19:51:09.478Z,13.93
2022-10-18T19:56:05.396Z,13.85
2022-10-18T19:58:32.297Z,13.55
2022-10-18T20:01:00.189Z,14.40
2022-10-18T20:03:31.787Z,14.25
2022-10-18T20:06:00.562Z,14.35
2022-10-18T20:08:30.079Z,15.37
2022-10-18T20:11:01.534Z,14.65
2022-10-18T20:13:28.171Z,15.70
2022-10-18T20:15:54.870Z,15.05
2022-10-18T20:18:21.566Z,16.08
2022-10-18T20:20:48.828Z,14.93
2022-10-18T20:23:16.684Z,20.75
2022-10-18T20:25:44.001Z,16.73
2022-10-18T20:28:10.582Z,18.38
2022-10-18T20:30:37.398Z,16.38
2022-10-18T20:33:04.024Z,17.20
2022-10-18T20:35:30.604Z,13.00
2022-10-18T20:37:57.299Z,14.38
2022-10-18T20:40:23.952Z,15.65
2022-10-18T20:42:52.261Z,14.27
2022-10-18T20:45:19.125Z,14.95
2022-10-18T20:47:45.796Z,16.27
2022-10-18T20:50:12.457Z,18.40
2022-10-18T20:52:39.080Z,16.40
2022-10-18T20:55:06.041Z,16.23
2022-10-18T20:57:35.739Z,15.05
2022-10-18T21:00:04.015Z,15.68
2022-10-18T21:02:30.626Z,14.95
2022-10-18T21:04:57.426Z,13.55
2022-10-18T21:07:24.089Z,13.90
2022-10-18T21:09:50.736Z,14.63
2022-10-18T21:12:17.577Z,13.73
2022-10-18T21:14:44.408Z,15.05
2022-10-18T21:17:10.996Z,15.43
2022-10-18T21:19:37.739Z,16.08
2022-10-18T21:22:04.616Z,14.07
2022-10-18T21:24:31.785Z,14.90
2022-10-18T21:26:59.088Z,14.20
2022-10-18T21:29:25.914Z,14.52
2022-10-18T21:31:57.949Z,14.30
2022-10-18T21:34:24.721Z,15.43
2022-10-18T21:36:51.359Z,14.88
2022-10-18T21:39:20.598Z,15.52
2022-10-18T21:41:47.363Z,15.27
2022-10-18T21:44:14.559Z,13.98
2022-10-18T21:46:43.060Z,14.05
2022-10-18T21:49:10.389Z,15.32
2022-10-18T21:51:37.627Z,14.50
2022-10-18T21:54:04.417Z,14.38
2022-10-18T21:56:33.943Z,13.90
2022-10-18T21:59:01.757Z,15.90
2022-10-18T22:01:34.392Z,15.88
2022-10-18T22:04:02.709Z,13.77
2022-10-18T22:06:32.535Z,14.70
2022-10-18T22:09:02.054Z,15.35
2022-10-18T22:11:35.128Z,13.30
2022-10-18T22:14:01.797Z,14.02
2022-10-18T22:16:28.610Z,15.10
2022-10-18T22:19:00.264Z,13.32
2022-10-18T22:21:27.608Z,12.68
2022-10-18T22:23:58.668Z,14.07
2022-10-18T22:26:28.478Z,13.95
2022-10-18T22:28:57.274Z,12.38
2022-10-18T22:31:26.670Z,12.30
2022-10-18T22:33:56.072Z,11.38
2022-10-18T22:36:23.426Z,12.52
2022-10-18T22:38:50.378Z,11.50
2022-10-18T22:41:17.497Z,11.75
2022-10-18T22:43:44.251Z,12.13
2022-10-18T22:46:13.772Z,11.57
2022-10-18T22:48:41.458Z,11.70
2022-10-18T22:51:08.553Z,11.48
2022-10-18T22:53:36.333Z,11.63
2022-10-18T22:56:03.700Z,11.82
2022-10-18T22:58:30.374Z,12.90
2022-10-18T23:01:02.303Z,11.35
2022-10-18T23:03:28.985Z,12.40
2022-10-18T23:05:55.990Z,13.52
2022-10-18T23:08:22.898Z,13.05
2022-10-18T23:10:57.243Z,13.88
2022-10-18T23:13:25.366Z,13.48
2022-10-18T23:15:52.067Z,15.27
2022-10-18T23:18:19.287Z,13.85
2022-10-18T23:20:46.164Z,14.25
2022-10-18T23:23:13.532Z,14.20
2022-10-18T23:25:40.171Z,14.05
2022-10-18T23:28:07.104Z,13.10
2022-10-18T23:30:33.863Z,13.68
2022-10-18T23:33:00.769Z,14.15
2022-10-18T23:35:27.399Z,14.05
2022-10-18T23:37:54.060Z,12.15
2022-10-18T23:40:20.628Z,13.95
2022-10-18T23:42:47.235Z,14.27
2022-10-18T23:45:13.813Z,14.55
2022-10-18T23:47:40.511Z,15.02
2022-10-18T23:50:07.569Z,14.55
2022-10-18T23:52:34.191Z,15.25
2022-10-18T23:55:00.849Z,13.35
2022-10-18T23:57:27.480Z,12.98
2022-10-18T23:59:54.111Z,14.45
